Create Custom Reports and Graphics: Custom Report

Latest Observations

Map

15 Minute Data

Lake County North

13 Stations

15 Minute Data | America/Los_Angeles
as of 1/22/20 4:27 AM PST
Station Date Time Temp (°F) Dew Pt (°F) RH (%) Wind Spd (mph) Wind Dir (°) Wind Gust (mph) Latest Rain (In) Daily Rain (In) Daily Min Temp (°F) Daily Max Temp (°F)
Upper Lake (UPL) 1/22/20 0400 41.4   0.2 41.4   0.2 100 0.9 NNE | 31 3.5 0.00 0.00 40.7   3.2 42.0   0.8
Scotts Valley (SVL) 1/22/20 0415 38.8   3.2 38.8   2.6 100 1.5 WSW | 249 3.1 0.00 0.00 38.4   2.9 41.5   0.9
High Valley Ridgeline (Brassfield) 1/21/20 2245 41.9   0.1 41.7   6.7 99 9.0 W | 259 14.5 0.00 0.11 41.2   0.1 47.1   10.4
Ridgeline Top (Brassfield) 1/21/20 2245 41.7   0.1 - - - - - - - 41.0   0.2 47.5   6.4
Ridgeline Low (Brassfield) 1/21/20 2245 43.6   2.8 - - - - - - - 40.7   2.5 48.5   5.5
High Valley Winery 1/21/20 2245 44.7   13.1 41.5   11.6 88 2.3 ENE | 62 7.3 0.00 0.14 31.8   0.7 49.6   6.4
Kelseyville (KEL) 1/22/20 0415 41.4   2.7 41.6   0.3 98 1.9 SSE | 150 3.7 0.00 0.00 40.4   2.4 44.2   3.1
Kelseyville Remote 1/22/20 0415 42.8   2.4 40.4   1.0 91 - - - - - 42.2   2.9 43.8   3.2
Kelseyville South (SML) 1/22/20 0400 41.6   5.0 41.2   0.2 98 0.0 N | 0 0.0 0.00 0.00 40.8   0.8 43.2   4.5
Bell Hill West (BHR) 1/22/20 0415 41.3   4.5 41.4   0.1 100 0.0 N | 0 0.0 0.00 0.00 41.0   4.7 43.2   4.4
Wight Way 1/22/20 0400 40.6   5.4 40.6   1.0 100 0.5 SE | 126 1.5 0.00 0.00 40.2   3.9 42.6   4.6
Red Hills (Beckstoffer) 1/22/20 0415 42.8   1.3 39.4   1.8 88 - - - - - 41.3   4.1 44.0   1.0
Red Hills East (2200ft) 1/22/20 0415 42.8   1.1 38.0   1.9 83 1.0 WNW | 302 3.9 0.00 0.00 42.4   0.2 43.4   1.2
Max     42.8 41.6 100 1.9 - 3.9 0.00 0.00 42.4 44.2
Avg     41.5 40.3 95 0.8 - 2.2 0.00 - - -
Min     38.8 38.0 83 0.0 - 0.0 0.00 0.00 38.4 41.5

Latest Observation

9 Stations

15 Minute Data | America/Los_Angeles
as of 1/22/20 4:27 AM PST
Station Date Time Temp (°F) Dew Pt (°F) RH (%) Upper Temp (°F) Wind Spd (mph) Wind Dir (°) Wind Gust (mph) Latest Rain (In) Daily Rain (In) Daily Min Temp (°F) Daily Max Temp (°F)
Diamond D (Middletown) 1/22/20 0415 42.0   5.6 41.6   0.1 98   17 42.8   5.7 0.7 WSW | 244 1.8   2.5 0.00 0.00 41.7   50.1 47.5   15.1
Bella Vista-Middletown West 1/22/20 0415 41.4   5.7 40.8   1.5 98   14 - - - - - - 41.1   5.7 47.8   0.8
Middletown-South 1/22/20 0415 41.8   5.9 41.5   1.1 99   17 - 1.1 SSE | 156 2.0   4.6 0.00 0.00 41.5   5.6 47.0   1.9
Lower Bohn 1/22/20 0415 40.8   6.0 40.8   2.8 100   12 - 1.0 ENE | 70 2.4   4.6 0.00 0.00 40.5   1.0 45.2   2.9
Upper Bohn South 1/22/20 0415 43.8   3.3 40.3   1.4 87   14 - 1.7 NW | 304 3.1   1.3 0.00 0.00 42.7   0.8 46.4   0.9
Upper Bohn North 1/22/20 0415 43.3   4.1 42.4   0.5 97   12 - 1.4 SE | 143 2.4   1.8 0.00 0.00 42.7   1.3 46.7   0.9
Morgan Valley (HSM) 1/21/20 0830 41.2   9.8 41.2   21.2 100   71 - 13.6 SSE | 159 19.5   17.7 0.00 0.06 40.6   2.8 42.2   9.6
Mine Pit South 1/20/20 1745 49.0   0.7 33.6   3.4 55   6 - 5.2 W | 269 8.3   3.3 0.00 0.00 44.0   0.4 56.4   3.4
Mine Pit North 1/20/20 1800 49.0   1.7 36.0   3.9 61   5 - 5.4 SSE | 167 9.2   4.4 - - 42.0   2.2 55.2   0.7
Max     43.8 42.4 100 - 1.7 - 3.1 0.00 0.00 42.7 47.8
Avg     42.2 41.2 97 - 1.2 - 2.3 0.00 - - -
Min     40.8 40.3 87 - 0.7 - 1.8 0.00 0.00 40.5 45.2